createdAt,value
2023-05-12T00:02:08.177Z,63.50
2023-05-12T00:04:36.641Z,63.08
2023-05-12T00:07:06.181Z,63.37
2023-05-12T00:09:33.547Z,63.63
2023-05-12T00:12:00.894Z,64.07
2023-05-12T00:14:28.146Z,64.14
2023-05-12T00:16:55.505Z,63.80
2023-05-12T00:19:22.893Z,63.56
2023-05-12T00:21:50.133Z,63.97
2023-05-12T00:24:17.401Z,64.48
2023-05-12T00:26:44.691Z,64.53
2023-05-12T00:29:11.965Z,64.89
2023-05-12T00:31:39.235Z,65.04
2023-05-12T00:34:06.559Z,65.67
2023-05-12T00:36:33.888Z,65.32
2023-05-12T00:39:01.342Z,65.55
2023-05-12T00:41:28.590Z,66.35
2023-05-12T00:43:55.867Z,66.24
2023-05-12T00:46:23.238Z,66.33
2023-05-12T00:48:50.549Z,65.97
2023-05-12T00:51:17.919Z,65.91
2023-05-12T00:53:49.804Z,65.69
2023-05-12T00:56:21.917Z,64.90
2023-05-12T00:58:49.265Z,64.71
2023-05-12T01:01:17.786Z,64.82
2023-05-12T01:03:46.497Z,64.08
2023-05-12T01:06:29.957Z,64.47
2023-05-12T01:08:57.471Z,64.90
2023-05-12T01:11:24.814Z,64.21
2023-05-12T01:13:52.208Z,64.44
2023-05-12T01:16:21.929Z,64.22
2023-05-12T01:18:51.369Z,64.48
2023-05-12T01:21:19.697Z,64.58
2023-05-12T01:23:51.771Z,64.29
2023-05-12T01:26:19.115Z,64.43
2023-05-12T01:28:46.451Z,64.55
2023-05-12T01:31:13.937Z,64.48
2023-05-12T01:33:42.124Z,64.75
2023-05-12T01:36:09.608Z,65.14
2023-05-12T01:38:37.661Z,64.82
2023-05-12T01:41:05.296Z,65.00
2023-05-12T01:43:32.650Z,65.06
2023-05-12T01:46:00.070Z,64.67
2023-05-12T01:48:28.165Z,65.01
2023-05-12T01:51:00.492Z,65.57
2023-05-12T01:53:27.783Z,65.87
2023-05-12T01:55:55.102Z,65.75
2023-05-12T01:58:23.738Z,66.27
2023-05-12T02:00:51.171Z,66.36
2023-05-12T02:03:19.367Z,66.59
2023-05-12T02:05:46.664Z,66.36
2023-05-12T02:08:13.914Z,65.93
2023-05-12T02:10:41.809Z,65.97
2023-05-12T02:13:09.243Z,65.37
2023-05-12T02:15:36.544Z,64.55
2023-05-12T02:18:04.613Z,65.09
2023-05-12T02:20:32.618Z,65.39
2023-05-12T02:23:00.923Z,65.61
2023-05-12T02:25:30.558Z,65.61
2023-05-12T02:27:57.819Z,66.76
2023-05-12T02:30:25.361Z,66.44
2023-05-12T02:32:52.707Z,66.49
2023-05-12T02:35:20.216Z,66.77
2023-05-12T02:37:47.491Z,66.75
2023-05-12T02:40:14.823Z,67.23
2023-05-12T02:42:43.565Z,67.14
2023-05-12T02:45:11.601Z,68.18
2023-05-12T02:47:39.253Z,68.42
2023-05-12T02:50:07.478Z,69.23
2023-05-12T02:52:34.796Z,69.25
2023-05-12T02:55:02.195Z,69.01
2023-05-12T02:57:33.955Z,68.86
2023-05-12T03:00:01.965Z,68.43
2023-05-12T03:02:29.648Z,68.02
2023-05-12T03:04:56.989Z,68.01
2023-05-12T03:07:24.416Z,67.71
2023-05-12T03:09:51.657Z,67.28
2023-05-12T03:12:18.959Z,66.29
2023-05-12T03:14:46.225Z,66.05
2023-05-12T03:17:13.620Z,65.63
2023-05-12T03:19:41.144Z,65.39
2023-05-12T03:22:08.534Z,67.38
2023-05-12T03:24:36.668Z,67.48
2023-05-12T03:27:04.208Z,68.02
2023-05-12T03:29:31.898Z,67.58
2023-05-12T03:31:59.295Z,68.32
2023-05-12T03:34:27.089Z,67.92
2023-05-12T03:36:57.371Z,67.32
2023-05-12T03:39:25.222Z,67.24
2023-05-12T03:41:53.043Z,67.49
2023-05-12T03:44:20.263Z,66.99
2023-05-12T03:46:47.656Z,66.59
2023-05-12T03:49:15.102Z,67.20
2023-05-12T03:51:42.358Z,68.16
2023-05-12T03:54:09.695Z,68.33
2023-05-12T03:56:37.049Z,67.42
2023-05-12T03:59:04.439Z,67.15
2023-05-12T04:01:31.903Z,66.64
2023-05-12T04:04:01.559Z,66.97
2023-05-12T04:06:28.956Z,67.28
2023-05-12T04:08:57.321Z,66.71
2023-05-12T04:11:24.640Z,66.82
2023-05-12T04:13:51.853Z,66.93
2023-05-12T04:16:19.159Z,67.09
2023-05-12T04:18:46.614Z,66.90
2023-05-12T04:21:13.887Z,66.58
2023-05-12T04:23:41.096Z,66.83
2023-05-12T04:26:08.400Z,66.49
2023-05-12T04:28:37.069Z,66.20
2023-05-12T04:31:04.714Z,65.93
2023-05-12T04:33:32.615Z,65.50
2023-05-12T04:36:00.813Z,65.13
2023-05-12T04:38:28.145Z,64.47
2023-05-12T04:40:59.909Z,64.82
2023-05-12T04:45:59.955Z,63.91
2023-05-12T04:48:29.100Z,64.04
2023-05-12T04:50:59.695Z,64.29
2023-05-12T04:53:34.597Z,64.22
2023-05-12T04:56:02.920Z,63.27
2023-05-12T04:58:34.894Z,62.82
2023-05-12T05:01:02.429Z,62.91
2023-05-12T05:03:29.962Z,62.42
2023-05-12T05:05:57.460Z,62.28
2023-05-12T05:08:25.579Z,61.61
2023-05-12T05:10:52.846Z,60.93
2023-05-12T05:13:20.160Z,61.51
2023-05-12T05:15:52.029Z,59.79
2023-05-12T05:18:22.378Z,59.71
2023-05-12T05:20:57.780Z,60.14
2023-05-12T05:23:26.793Z,59.43
2023-05-12T05:25:54.395Z,57.93
2023-05-12T05:28:21.828Z,58.41
2023-05-12T05:30:49.113Z,58.26
2023-05-12T05:33:17.419Z,57.78
2023-05-12T05:35:45.568Z,58.27
2023-05-12T05:38:13.123Z,56.99
2023-05-12T05:40:52.246Z,56.89
2023-05-12T05:43:21.398Z,56.79
2023-05-12T05:45:52.188Z,56.20
2023-05-12T05:48:21.850Z,53.54
2023-05-12T05:50:49.169Z,51.72
2023-05-12T05:53:18.497Z,50.61
2023-05-12T05:55:46.605Z,51.33
2023-05-12T05:58:15.287Z,51.32
2023-05-12T06:00:43.619Z,50.29
2023-05-12T06:03:11.644Z,49.55
2023-05-12T06:05:39.080Z,48.88
2023-05-12T06:08:08.974Z,48.47
2023-05-12T06:10:36.253Z,48.22
2023-05-12T06:13:03.596Z,47.60
2023-05-12T06:15:30.892Z,47.25
2023-05-12T06:17:58.212Z,47.71
2023-05-12T06:20:25.977Z,47.07
2023-05-12T06:22:53.289Z,47.75
2023-05-12T06:25:20.814Z,47.53
2023-05-12T06:27:52.053Z,47.51
2023-05-12T06:30:19.438Z,47.14
2023-05-12T06:32:46.834Z,47.52
2023-05-12T06:35:14.145Z,46.98
2023-05-12T06:37:41.433Z,47.06
2023-05-12T06:40:09.173Z,46.57
2023-05-12T06:42:36.471Z,46.58
2023-05-12T06:45:11.397Z,46.82
2023-05-12T06:47:41.226Z,46.34
2023-05-12T06:50:08.811Z,46.23
2023-05-12T06:52:36.123Z,45.62
2023-05-12T06:55:03.498Z,45.29
2023-05-12T06:57:30.820Z,45.39
2023-05-12T06:59:58.156Z,45.30
2023-05-12T07:02:25.390Z,44.33
2023-05-12T07:04:52.677Z,43.95
2023-05-12T07:07:19.941Z,44.96
2023-05-12T07:09:47.249Z,44.78
2023-05-12T07:12:14.518Z,44.59
2023-05-12T07:14:41.782Z,44.83
2023-05-12T07:17:09.141Z,44.54
2023-05-12T07:19:36.638Z,44.78
2023-05-12T07:22:04.550Z,44.31
2023-05-12T07:24:31.801Z,44.80
2023-05-12T07:26:59.094Z,44.12
2023-05-12T07:29:26.369Z,44.96
2023-05-12T07:31:53.867Z,45.25
2023-05-12T07:34:21.455Z,44.56
2023-05-12T07:36:48.795Z,43.99
2023-05-12T07:39:19.423Z,44.26
2023-05-12T07:41:46.726Z,44.36
2023-05-12T07:44:13.955Z,43.71
2023-05-12T07:46:41.315Z,43.09
2023-05-12T07:49:08.688Z,42.48
2023-05-12T07:51:36.305Z,42.05
2023-05-12T07:54:04.853Z,42.58
2023-05-12T07:56:32.137Z,42.96
2023-05-12T07:58:59.495Z,42.38
2023-05-12T08:01:26.806Z,42.98
2023-05-12T08:03:54.130Z,42.89
2023-05-12T08:06:21.465Z,41.15
2023-05-12T08:08:48.820Z,41.63
2023-05-12T08:11:16.086Z,42.12
2023-05-12T08:13:43.351Z,42.13
2023-05-12T08:16:10.699Z,41.99
2023-05-12T08:18:38.808Z,41.03
2023-05-12T08:21:06.136Z,41.07
2023-05-12T08:23:34.791Z,41.57
2023-05-12T08:26:02.038Z,40.24
2023-05-12T08:28:29.292Z,40.17
2023-05-12T08:30:56.751Z,39.85
2023-05-12T08:33:24.244Z,39.58
2023-05-12T08:35:52.269Z,39.66
2023-05-12T08:38:19.536Z,39.31
2023-05-12T08:40:55.984Z,39.23
2023-05-12T08:43:27.080Z,38.63
2023-05-12T08:45:57.748Z,38.21
2023-05-12T08:48:27.212Z,37.84
2023-05-12T08:50:54.605Z,37.66
2023-05-12T08:53:24.674Z,37.55
2023-05-12T08:57:09.734Z,36.99
2023-05-12T08:58:42.194Z,36.50
2023-05-12T09:01:10.249Z,36.39
2023-05-12T09:03:37.632Z,36.42
2023-05-12T09:06:04.931Z,35.49
2023-05-12T09:08:33.188Z,36.76
2023-05-12T09:11:00.706Z,36.29
2023-05-12T09:14:08.827Z,36.06
2023-05-12T09:16:44.439Z,35.94
2023-05-12T09:19:11.819Z,36.35
2023-05-12T09:21:39.841Z,36.72
2023-05-12T09:24:07.593Z,36.27
2023-05-12T09:26:46.577Z,35.85
2023-05-12T09:29:24.003Z,36.53
2023-05-12T09:31:57.749Z,36.13
2023-05-12T09:34:41.399Z,37.26
2023-05-12T09:37:09.121Z,37.06
2023-05-12T09:39:36.742Z,36.66
2023-05-12T09:42:04.356Z,36.60
2023-05-12T09:44:32.039Z,37.12
2023-05-12T09:47:10.102Z,38.00
2023-05-12T09:49:38.312Z,38.11
2023-05-12T09:52:05.972Z,38.64
2023-05-12T09:54:33.857Z,38.98
2023-05-12T09:57:04.996Z,40.43
2023-05-12T09:59:36.349Z,40.07
2023-05-12T10:02:06.035Z,39.59
2023-05-12T10:04:41.802Z,39.35
2023-05-12T10:07:13.126Z,38.79
2023-05-12T10:09:42.320Z,38.72
2023-05-12T10:12:10.003Z,38.74
2023-05-12T10:14:37.483Z,38.90
2023-05-12T10:17:05.553Z,37.91
2023-05-12T10:19:32.944Z,38.50
2023-05-12T10:22:00.313Z,38.28
2023-05-12T10:24:27.998Z,38.46
2023-05-12T10:26:59.610Z,38.48
2023-05-12T10:29:29.961Z,38.97
2023-05-12T10:31:58.061Z,38.18
2023-05-12T10:34:35.918Z,38.81
2023-05-12T10:37:09.061Z,38.38
2023-05-12T10:39:37.194Z,38.75
2023-05-12T10:42:08.560Z,39.25
2023-05-12T10:44:36.479Z,39.48
2023-05-12T10:47:13.773Z,39.62
2023-05-12T10:49:41.760Z,40.16
2023-05-12T10:52:12.626Z,40.07
2023-05-12T10:54:44.240Z,39.57
2023-05-12T10:57:18.232Z,39.24
2023-05-12T10:59:53.203Z,39.85
2023-05-12T11:02:26.525Z,39.07
2023-05-12T11:04:59.580Z,39.36
2023-05-12T11:07:33.042Z,39.59
2023-05-12T11:10:02.020Z,39.88
2023-05-12T11:12:32.678Z,40.24
2023-05-12T11:15:04.253Z,39.78
2023-05-12T11:17:32.106Z,39.91
2023-05-12T11:20:01.115Z,39.82
2023-05-12T11:22:28.770Z,39.14
2023-05-12T11:24:56.210Z,38.70
2023-05-12T11:27:24.062Z,39.11
2023-05-12T11:30:01.794Z,39.99
2023-05-12T11:32:29.762Z,45.04
2023-05-12T11:35:09.894Z,47.96
2023-05-12T11:37:39.290Z,48.16
2023-05-12T11:40:13.703Z,47.68
2023-05-12T11:42:42.896Z,47.80
2023-05-12T11:45:28.868Z,48.93
2023-05-12T11:48:11.329Z,49.35
2023-05-12T11:50:40.054Z,49.84
2023-05-12T11:53:15.679Z,50.42
2023-05-12T11:55:55.783Z,50.68
2023-05-12T11:58:27.193Z,50.75
2023-05-12T12:00:54.539Z,51.92
2023-05-12T12:03:21.848Z,52.88
2023-05-12T12:06:00.187Z,53.63
2023-05-12T12:08:27.498Z,55.14
2023-05-12T12:10:57.079Z,57.81
2023-05-12T12:13:25.381Z,59.98
2023-05-12T12:15:52.843Z,60.98
2023-05-12T12:18:20.240Z,60.89
2023-05-12T12:20:47.684Z,62.07
2023-05-12T12:23:14.945Z,62.38
2023-05-12T12:25:44.694Z,64.46
2023-05-12T12:28:12.290Z,63.71
2023-05-12T12:30:39.530Z,62.51
2023-05-12T12:33:07.017Z,61.49
2023-05-12T12:35:34.411Z,62.04
2023-05-12T12:38:01.682Z,62.52
2023-05-12T12:40:28.987Z,62.86
2023-05-12T12:42:56.294Z,63.07
2023-05-12T12:45:23.720Z,64.32
2023-05-12T12:47:54.963Z,65.61
2023-05-12T12:50:25.027Z,66.56
2023-05-12T12:52:53.146Z,67.57
2023-05-12T12:55:20.696Z,67.17
2023-05-12T12:57:48.565Z,68.43
2023-05-12T13:00:16.179Z,66.06
2023-05-12T13:02:43.511Z,67.33
2023-05-12T13:05:10.894Z,63.56
2023-05-12T13:07:38.222Z,65.00
2023-05-12T13:10:05.898Z,67.38
2023-05-12T13:12:33.175Z,68.68
2023-05-12T13:15:00.812Z,67.90
2023-05-12T13:17:28.460Z,65.00
2023-05-12T13:19:55.823Z,65.00
2023-05-12T13:22:23.147Z,62.96
2023-05-12T13:24:50.452Z,65.52
2023-05-12T13:27:18.002Z,65.01
2023-05-12T13:29:47.408Z,66.65
2023-05-12T13:32:15.612Z,66.52
2023-05-12T13:34:43.128Z,65.14
2023-05-12T13:37:10.407Z,66.46
2023-05-12T13:39:37.699Z,66.17
2023-05-12T13:42:05.237Z,64.99
2023-05-12T13:44:32.695Z,65.04
2023-05-12T13:47:00.101Z,65.25
2023-05-12T13:49:27.324Z,64.47
2023-05-12T13:51:54.761Z,62.35
2023-05-12T13:54:22.308Z,62.10
2023-05-12T13:56:52.223Z,61.94
2023-05-12T13:59:19.854Z,61.61
2023-05-12T14:01:47.315Z,61.50
2023-05-12T14:04:14.659Z,59.94
2023-05-12T14:06:41.957Z,60.45
2023-05-12T14:09:09.286Z,61.92
2023-05-12T14:11:37.036Z,62.46
2023-05-12T14:14:06.311Z,60.95
2023-05-12T14:16:33.745Z,62.70
2023-05-12T14:19:01.516Z,62.06
2023-05-12T14:21:28.813Z,62.35
2023-05-12T14:23:56.113Z,62.34
2023-05-12T14:26:25.501Z,62.96
2023-05-12T14:28:52.927Z,62.41
2023-05-12T14:31:20.428Z,62.36
2023-05-12T14:33:47.958Z,62.67
2023-05-12T14:36:15.263Z,63.08
2023-05-12T14:38:42.558Z,64.41
2023-05-12T14:41:09.915Z,64.10
2023-05-12T14:43:37.499Z,64.29
2023-05-12T14:46:06.245Z,65.46
2023-05-12T14:48:33.716Z,65.37
2023-05-12T14:51:02.898Z,67.19
2023-05-12T14:53:30.322Z,67.09
2023-05-12T14:55:57.655Z,67.52
2023-05-12T14:58:26.106Z,67.26
2023-05-12T15:00:53.522Z,69.02
2023-05-12T15:03:21.444Z,68.25
2023-05-12T15:08:21.840Z,69.84
2023-05-12T15:10:49.267Z,68.45
2023-05-12T15:13:19.849Z,70.33
2023-05-12T15:15:47.142Z,70.16
2023-05-12T15:18:14.470Z,70.30
2023-05-12T15:20:41.842Z,70.48
2023-05-12T15:23:09.118Z,70.79
2023-05-12T15:25:39.590Z,71.57
2023-05-12T15:28:07.179Z,71.79
2023-05-12T15:30:35.854Z,70.14
2023-05-12T15:33:06.934Z,70.99
2023-05-12T15:35:34.522Z,70.03
2023-05-12T15:38:04.970Z,73.09
2023-05-12T15:40:32.398Z,70.06
2023-05-12T15:43:00.264Z,71.09
2023-05-12T15:45:27.556Z,71.64
2023-05-12T15:47:56.441Z,71.58
2023-05-12T15:50:24.621Z,71.96
2023-05-12T15:52:52.097Z,72.10
2023-05-12T15:55:19.825Z,72.98
2023-05-12T15:57:47.230Z,73.71
2023-05-12T16:00:15.458Z,73.35
2023-05-12T16:02:42.847Z,73.87
2023-05-12T16:05:10.422Z,73.50
2023-05-12T16:07:38.840Z,74.00
2023-05-12T16:10:06.550Z,72.04
2023-05-12T16:12:35.781Z,73.61
2023-05-12T16:15:04.943Z,73.61
2023-05-12T16:17:32.246Z,72.88
2023-05-12T16:19:59.606Z,72.87
2023-05-12T16:22:26.874Z,71.73
2023-05-12T16:24:55.702Z,71.69
2023-05-12T16:27:22.983Z,71.20
2023-05-12T16:29:53.356Z,69.45
2023-05-12T16:32:20.763Z,70.37
2023-05-12T16:34:48.066Z,69.68
2023-05-12T16:37:15.286Z,70.15
2023-05-12T16:39:42.699Z,71.33
2023-05-12T16:42:09.971Z,70.78
2023-05-12T16:44:37.234Z,70.30
2023-05-12T16:47:04.668Z,72.83
2023-05-12T16:49:31.911Z,71.88
2023-05-12T16:51:59.208Z,71.57
2023-05-12T16:54:26.668Z,71.72
2023-05-12T16:56:53.938Z,72.20
2023-05-12T16:59:21.318Z,72.13
2023-05-12T17:01:48.654Z,73.08
2023-05-12T17:04:16.610Z,71.04
2023-05-12T17:06:44.125Z,71.83
2023-05-12T17:09:11.618Z,72.57
2023-05-12T17:11:38.880Z,72.87
2023-05-12T17:14:06.250Z,73.32
2023-05-12T17:16:33.737Z,72.63
2023-05-12T17:21:31.597Z,73.38
2023-05-12T17:23:58.916Z,73.25
2023-05-12T17:26:27.937Z,74.34
2023-05-12T17:28:55.723Z,73.26
2023-05-12T17:31:23.029Z,71.55
2023-05-12T17:33:50.435Z,72.87
2023-05-12T17:36:18.706Z,72.52
2023-05-12T17:38:46.272Z,74.04
2023-05-12T17:41:13.676Z,75.14
2023-05-12T17:43:41.461Z,75.61
2023-05-12T17:46:09.272Z,76.81
2023-05-12T17:48:38.421Z,76.56
2023-05-12T17:51:06.077Z,77.32
2023-05-12T17:53:33.353Z,76.27
2023-05-12T17:56:01.395Z,76.74
2023-05-12T17:58:28.710Z,77.42
2023-05-12T18:00:56.251Z,77.78
2023-05-12T18:03:24.165Z,76.91
2023-05-12T18:05:52.290Z,78.28
2023-05-12T18:08:19.652Z,78.73
2023-05-12T18:10:47.050Z,79.27
2023-05-12T18:13:15.562Z,77.90
2023-05-12T18:15:42.947Z,77.50
2023-05-12T18:18:10.743Z,78.76
2023-05-12T18:20:38.259Z,75.86
2023-05-12T18:23:05.692Z,75.68
2023-05-12T18:25:32.974Z,76.50
2023-05-12T18:28:00.314Z,76.50
2023-05-12T18:30:27.650Z,76.91
2023-05-12T18:32:55.291Z,77.67
2023-05-12T18:35:23.034Z,77.72
2023-05-12T18:37:50.565Z,76.89
2023-05-12T18:40:18.015Z,76.63
2023-05-12T18:42:45.317Z,76.82
2023-05-12T18:45:12.686Z,77.14
2023-05-12T18:47:40.093Z,77.08
2023-05-12T18:50:07.988Z,76.69
2023-05-12T18:52:35.883Z,77.42
2023-05-12T18:55:03.274Z,78.37
2023-05-12T18:57:30.580Z,76.84
2023-05-12T18:59:57.846Z,77.09
2023-05-12T19:02:25.116Z,77.31
2023-05-12T19:04:52.683Z,77.89
2023-05-12T19:07:20.045Z,78.30
2023-05-12T19:09:47.433Z,77.70
2023-05-12T19:12:14.704Z,77.60
2023-05-12T19:14:43.249Z,78.64
2023-05-12T19:17:10.916Z,78.63
2023-05-12T19:19:38.404Z,79.02
2023-05-12T19:22:05.686Z,78.96
2023-05-12T19:24:33.072Z,78.75
2023-05-12T19:27:00.371Z,78.54
2023-05-12T19:29:27.956Z,78.48
2023-05-12T19:31:55.393Z,78.44
2023-05-12T19:34:23.933Z,78.23
2023-05-12T19:36:51.670Z,78.04
2023-05-12T19:39:18.904Z,78.65
2023-05-12T19:41:46.287Z,79.42
2023-05-12T19:44:13.651Z,79.17
2023-05-12T19:46:40.965Z,79.91
2023-05-12T19:49:08.187Z,79.92
2023-05-12T19:51:35.442Z,79.60
2023-05-12T19:54:04.798Z,79.53
2023-05-12T19:56:32.471Z,79.22
2023-05-12T19:58:59.823Z,78.66
2023-05-12T20:01:27.189Z,77.48
2023-05-12T20:03:54.465Z,70.70
2023-05-12T20:06:22.512Z,64.73
2023-05-12T20:08:49.793Z,64.09
2023-05-12T20:11:17.043Z,63.14
2023-05-12T20:13:44.280Z,61.27
2023-05-12T20:16:11.827Z,60.80
2023-05-12T20:18:39.204Z,60.91
2023-05-12T20:21:06.511Z,60.82
2023-05-12T20:23:33.774Z,61.06
2023-05-12T20:26:01.164Z,60.35
2023-05-12T20:28:29.267Z,60.51
2023-05-12T20:30:56.680Z,61.33
2023-05-12T20:33:24.045Z,61.24
2023-05-12T20:35:51.321Z,60.31
2023-05-12T20:38:18.610Z,60.41
2023-05-12T20:40:45.884Z,60.53
2023-05-12T20:43:14.456Z,60.33
2023-05-12T20:45:42.480Z,59.54
2023-05-12T20:48:09.877Z,59.84
2023-05-12T20:50:37.156Z,59.89
2023-05-12T20:53:04.811Z,59.40
2023-05-12T20:55:34.991Z,59.03
2023-05-12T20:58:02.265Z,58.99
2023-05-12T21:00:29.497Z,58.75
2023-05-12T21:02:58.063Z,58.90
2023-05-12T21:05:25.832Z,59.17
2023-05-12T21:07:53.079Z,59.94
2023-05-12T21:10:21.223Z,59.63
2023-05-12T21:12:49.107Z,59.58
2023-05-12T21:15:16.511Z,58.88
2023-05-12T21:17:43.895Z,58.74
2023-05-12T21:20:11.833Z,58.74
2023-05-12T21:22:40.649Z,58.98
2023-05-12T21:25:08.435Z,58.57
2023-05-12T21:27:40.709Z,59.32
2023-05-12T21:30:09.488Z,58.76
2023-05-12T21:32:37.048Z,59.01
2023-05-12T21:35:04.920Z,58.79
2023-05-12T21:37:32.240Z,58.88
2023-05-12T21:39:59.619Z,59.03
2023-05-12T21:42:26.957Z,58.34
2023-05-12T21:44:54.250Z,58.63
2023-05-12T21:47:21.521Z,58.81
2023-05-12T21:49:53.799Z,59.61
2023-05-12T21:52:21.122Z,58.79
2023-05-12T21:54:48.438Z,58.72
2023-05-12T21:57:15.738Z,58.77
2023-05-12T21:59:43.065Z,58.49
2023-05-12T22:02:10.423Z,58.63
2023-05-12T22:04:37.737Z,58.74
2023-05-12T22:07:05.226Z,58.87
2023-05-12T22:09:32.493Z,58.81
2023-05-12T22:12:00.045Z,59.11
2023-05-12T22:14:27.354Z,59.34
2023-05-12T22:16:55.936Z,58.67
2023-05-12T22:19:23.355Z,58.90
2023-05-12T22:21:51.215Z,59.07
2023-05-12T22:24:18.494Z,59.15
2023-05-12T22:26:46.034Z,59.39
2023-05-12T22:29:13.362Z,59.38
2023-05-12T22:31:42.282Z,58.92
2023-05-12T22:34:09.893Z,59.07
2023-05-12T22:36:37.188Z,58.88
2023-05-12T22:39:04.427Z,58.75
2023-05-12T22:41:31.696Z,59.54
2023-05-12T22:43:59.074Z,59.49
2023-05-12T22:46:26.465Z,59.51
2023-05-12T22:48:53.806Z,59.47
2023-05-12T22:51:21.240Z,59.34
2023-05-12T22:53:48.551Z,59.36
2023-05-12T22:56:15.867Z,59.54
2023-05-12T22:58:43.115Z,59.63
2023-05-12T23:01:10.497Z,59.65
2023-05-12T23:03:37.790Z,59.89
2023-05-12T23:06:05.259Z,59.51
2023-05-12T23:08:32.581Z,59.58
2023-05-12T23:10:59.881Z,59.60
2023-05-12T23:13:27.107Z,59.71
2023-05-12T23:15:54.335Z,59.59
2023-05-12T23:18:21.753Z,60.07
2023-05-12T23:20:49.063Z,59.61
2023-05-12T23:23:16.361Z,60.09
2023-05-12T23:25:43.926Z,59.69
2023-05-12T23:28:11.216Z,59.95
2023-05-12T23:30:38.507Z,59.89
2023-05-12T23:33:05.931Z,60.48
2023-05-12T23:35:33.342Z,60.27
2023-05-12T23:38:00.671Z,60.61
2023-05-12T23:40:27.977Z,60.72
2023-05-12T23:42:55.486Z,61.03
2023-05-12T23:45:22.737Z,61.15
2023-05-12T23:47:50.350Z,60.96
2023-05-12T23:50:17.669Z,61.30
2023-05-12T23:52:44.914Z,61.55
2023-05-12T23:55:12.190Z,61.45
2023-05-12T23:57:39.442Z,61.93
